< < Back
Terminal Aerodrome Forecast


Current Version              Previous Versions:   1  2  3  4  5  6  7  8  9  

Terminal Aerodrome Forecast

106
FTUS42 KFFC 240137 AAA
TAFATL
TAF AMD
KATL 240137Z 2402/2506 24005KT P6SM SCT150 BKN250
     FM241500 25006KT P6SM SCT040
     FM241800 21007KT P6SM VCSH SCT050 PROB30 2418/2424 4SM TSRA
      BKN040CB
     FM250200 19005KT P6SM FEW050 SCT150=

Latest METAR

705
SAUS70 KWBC 240800 RRL
MTRATL
METAR KATL 240752Z 10003KT 10SM FEW250 26/22 A3003 RMK AO2 SLP156
T02560222


USA.gov is the U.S. government's official web portal to all federal, state and local government web resources and services.